Umar1 — 9HA2498 — position and weather

sailwx.info

Track history (hours):
 
Tides and Currents Weather Stations Pressure Air Temp Water Temp Dewpoint Dewpoint Depression Visibility Wind Speed Wind Dir Waves Ship Positions

Umar1

Last reported at 2016-Jun-29 08:32 UTC. Time now 2016-Jun-29 09:13 UTC.
Position N 35°56' E 014°50'.

Length 100 m; draft 4.8 m.

Type: Ship. MMSI: 248751000.

Date/timePositionNaut miles runAvg speedWind from/ knotsBaromVisibWave heightAir tempDewpointWater temp
2016-Jun-29 08:32N 35°56' E 014°50'0 0.0
2016-Jun-29 07:32N 35°56' E 014°50'0 0.0
2016-Jun-28 20:29N 35°56' E 014°50'0 0.0
2016-Jun-28 19:32N 35°56' E 014°50'0 0.0
2016-Jun-28 18:32N 35°56' E 014°50'0 0.0
2016-Jun-28 17:29N 35°56' E 014°50'6 1.4
2016-Jun-28 13:33N 36°00' E 014°46'9 9.5
2016-Jun-28 12:33N 36°10' E 014°50'1110.6
2016-Jun-28 11:33N 36°18' E 014°57'  
2016-Jun-25 14:22N 36°15' E 014°55'910.7
2016-Jun-25 13:33N 36°08' E 014°49'1010.4
2016-Jun-25 12:33N 35°59' E 014°42'7 0.2
2016-Jun-24 06:07N 35°56' E 014°50'0 0.0
2016-Jun-23 20:28N 35°56' E 014°50'0 0.0
2016-Jun-23 19:31N 35°56' E 014°50'0 0.0
2016-Jun-23 18:31N 35°56' E 014°50'0 0.0
2016-Jun-23 17:31N 35°56' E 014°50'0 0.0
2016-Jun-23 15:10N 35°56' E 014°50'0 0.0
2016-Jun-23 14:04N 35°56' E 014°50'0 0.0
2016-Jun-23 13:28N 35°56' E 014°50'0 0.0
2016-Jun-23 12:31N 35°56' E 014°50'0 0.0
2016-Jun-23 11:28N 35°56' E 014°50'0 0.0
2016-Jun-23 09:31N 35°56' E 014°50'0 0.0
2016-Jun-23 08:31N 35°56' E 014°50'0 0.0
2016-Jun-23 07:31N 35°56' E 014°50'0 0.0
2016-Jun-23 01:28N 35°56' E 014°50'0 0.0
2016-Jun-22 19:31N 35°56' E 014°50'0 0.0
2016-Jun-22 17:22N 35°56' E 014°50'0 0.0
2016-Jun-22 15:10N 35°56' E 014°50'0 0.0
2016-Jun-22 13:22N 35°56' E 014°50'0 0.0
2016-Jun-22 12:31N 35°56' E 014°50'0 0.0
2016-Jun-22 11:31N 35°56' E 014°50'0 0.0
2016-Jun-22 10:25N 35°56' E 014°50'0 0.0
2016-Jun-22 09:28N 35°56' E 014°50'0 0.0
2016-Jun-22 08:31N 35°56' E 014°50'0 0.0
2016-Jun-22 03:22N 35°56' E 014°50'0 0.0
2016-Jun-21 17:31N 35°56' E 014°50'0 0.0
2016-Jun-21 16:31N 35°56' E 014°50'11 0.2
2016-Jun-19 16:29N 35°59' E 014°37'1111.3
2016-Jun-19 15:32N 36°04' E 014°26'1010.4
2016-Jun-19 14:33N 36°12' E 014°16'1010.4
2016-Jun-19 13:34N 36°19' E 014°07'1010.4
2016-Jun-19 12:33N 36°26' E 013°58'1211.6
2016-Jun-19 11:30N 36°34' E 013°46'1312.0
2016-Jun-19 10:27N 36°43' E 013°35'1112.1
2016-Jun-19 09:33N 36°50' E 013°25'  
Track history (hours):
 
Tides and Currents Weather Stations Pressure Air Temp Water Temp Dewpoint Dewpoint Depression Visibility Wind Speed Wind Dir Waves Ship Positions

Umar1

Last reported at 2016-Jun-29 08:32 UTC. Time now 2016-Jun-29 09:13 UTC.
Position N 35°56' E 014°50'.

Length 100 m; draft 4.8 m.

Type: Ship. MMSI: 248751000.

Date/timePositionNaut miles runAvg speedWind from/ knotsBaromVisibWave heightAir tempDewpointWater temp
2016-Jun-29 08:32N 35°56' E 014°50'0 0.0
2016-Jun-29 07:32N 35°56' E 014°50'0 0.0
2016-Jun-28 20:29N 35°56' E 014°50'0 0.0
2016-Jun-28 19:32N 35°56' E 014°50'0 0.0
2016-Jun-28 18:32N 35°56' E 014°50'0 0.0
2016-Jun-28 17:29N 35°56' E 014°50'6 1.4
2016-Jun-28 13:33N 36°00' E 014°46'9 9.5
2016-Jun-28 12:33N 36°10' E 014°50'1110.6
2016-Jun-28 11:33N 36°18' E 014°57'  
2016-Jun-25 14:22N 36°15' E 014°55'910.7
2016-Jun-25 13:33N 36°08' E 014°49'1010.4
2016-Jun-25 12:33N 35°59' E 014°42'7 0.2
2016-Jun-24 06:07N 35°56' E 014°50'0 0.0
2016-Jun-23 20:28N 35°56' E 014°50'0 0.0
2016-Jun-23 19:31N 35°56' E 014°50'0 0.0
2016-Jun-23 18:31N 35°56' E 014°50'0 0.0
2016-Jun-23 17:31N 35°56' E 014°50'0 0.0
2016-Jun-23 15:10N 35°56' E 014°50'0 0.0
2016-Jun-23 14:04N 35°56' E 014°50'0 0.0
2016-Jun-23 13:28N 35°56' E 014°50'0 0.0
2016-Jun-23 12:31N 35°56' E 014°50'0 0.0
2016-Jun-23 11:28N 35°56' E 014°50'0 0.0
2016-Jun-23 09:31N 35°56' E 014°50'0 0.0
2016-Jun-23 08:31N 35°56' E 014°50'0 0.0
2016-Jun-23 07:31N 35°56' E 014°50'0 0.0
2016-Jun-23 01:28N 35°56' E 014°50'0 0.0
2016-Jun-22 19:31N 35°56' E 014°50'0 0.0
2016-Jun-22 17:22N 35°56' E 014°50'0 0.0
2016-Jun-22 15:10N 35°56' E 014°50'0 0.0
2016-Jun-22 13:22N 35°56' E 014°50'0 0.0
2016-Jun-22 12:31N 35°56' E 014°50'0 0.0
2016-Jun-22 11:31N 35°56' E 014°50'0 0.0
2016-Jun-22 10:25N 35°56' E 014°50'0 0.0
2016-Jun-22 09:28N 35°56' E 014°50'0 0.0
2016-Jun-22 08:31N 35°56' E 014°50'0 0.0
2016-Jun-22 03:22N 35°56' E 014°50'0 0.0
2016-Jun-21 17:31N 35°56' E 014°50'0 0.0
2016-Jun-21 16:31N 35°56' E 014°50'11 0.2
2016-Jun-19 16:29N 35°59' E 014°37'1111.3
2016-Jun-19 15:32N 36°04' E 014°26'1010.4
2016-Jun-19 14:33N 36°12' E 014°16'1010.4
2016-Jun-19 13:34N 36°19' E 014°07'1010.4
2016-Jun-19 12:33N 36°26' E 013°58'1211.6
2016-Jun-19 11:30N 36°34' E 013°46'1312.0
2016-Jun-19 10:27N 36°43' E 013°35'1112.1
2016-Jun-19 09:33N 36°50' E 013°25'  

Dump ship's entire track history